createdAt,value
2023-04-12T00:00:55.647Z,95397.22
2023-04-12T00:03:22.649Z,95393.03
2023-04-12T00:05:54.438Z,95384.72
2023-04-12T00:08:33.988Z,95377.47
2023-04-12T00:11:02.331Z,95371.19
2023-04-12T00:13:29.988Z,95378.47
2023-04-12T00:15:57.070Z,95378.09
2023-04-12T00:18:25.425Z,95376.06
2023-04-12T00:20:52.884Z,95367.56
2023-04-12T00:23:19.904Z,95368.38
2023-04-12T00:25:46.473Z,95361.91
2023-04-12T00:28:12.923Z,95357.03
2023-04-12T00:30:41.651Z,95342.63
2023-04-12T00:33:08.380Z,95330.06
2023-04-12T00:35:34.879Z,95315.91
2023-04-12T00:38:03.950Z,95294.22
2023-04-12T00:40:30.705Z,95013.16
2023-04-12T00:42:58.112Z,95016.34
2023-04-12T00:45:24.521Z,94995.44
2023-04-12T00:47:51.063Z,94984.16
2023-04-12T00:50:18.012Z,94985.53
2023-04-12T00:52:44.846Z,95001.13
2023-04-12T00:55:11.817Z,95047.16
2023-04-12T00:57:40.044Z,95007.44
2023-04-12T01:00:12.622Z,94992.22
2023-04-12T01:02:42.958Z,94973.84
2023-04-12T01:05:15.060Z,94953.16
2023-04-12T01:08:23.964Z,94930.22
2023-04-12T01:11:13.397Z,94903.66
2023-04-12T01:13:44.944Z,94878.91
2023-04-12T01:16:20.628Z,94862.84
2023-04-12T01:18:51.410Z,94845.41
2023-04-12T01:21:32.490Z,94801.06
2023-04-12T01:24:13.703Z,94782.16
2023-04-12T01:26:49.215Z,94755.81
2023-04-12T01:29:18.168Z,94755.03
2023-04-12T01:31:53.473Z,94740.47
2023-04-12T01:34:22.985Z,94725.00
2023-04-12T01:36:51.893Z,94711.59
2023-04-12T01:39:18.883Z,94696.84
2023-04-12T01:41:48.800Z,94687.31
2023-04-12T01:44:16.937Z,94659.94
2023-04-12T01:46:47.075Z,94654.69
2023-04-12T01:49:14.165Z,94629.72
2023-04-12T01:52:03.987Z,94604.19
2023-04-12T01:54:36.672Z,94586.31
2023-04-12T01:57:08.793Z,94584.13
2023-04-12T01:59:41.457Z,94568.75
2023-04-12T02:02:09.316Z,94561.31
2023-04-12T02:04:37.191Z,94542.50
2023-04-12T02:07:04.989Z,94530.72
2023-04-12T02:09:37.153Z,94522.91
2023-04-12T02:12:03.728Z,94508.56
2023-04-12T02:14:32.018Z,94509.97
2023-04-12T02:16:58.636Z,94493.59
2023-04-12T02:19:25.139Z,94476.50
2023-04-12T02:21:52.546Z,94467.72
2023-04-12T02:24:18.981Z,94440.13
2023-04-12T02:26:46.110Z,94476.09
2023-04-12T02:29:13.012Z,94464.88
2023-04-12T02:31:39.425Z,94445.84
2023-04-12T02:34:06.311Z,94425.81
2023-04-12T02:36:33.201Z,94409.13
2023-04-12T02:38:59.623Z,94398.91
2023-04-12T02:41:26.341Z,94388.94
2023-04-12T02:43:53.229Z,94379.88
2023-04-12T02:46:24.521Z,94385.97
2023-04-12T02:48:51.954Z,94361.75
2023-04-12T02:51:18.874Z,94353.16
2023-04-12T02:53:45.358Z,94292.78
2023-04-12T02:56:12.915Z,94295.44
2023-04-12T02:58:39.973Z,94284.66
2023-04-12T03:01:07.563Z,94281.44
2023-04-12T03:03:37.273Z,94272.06
2023-04-12T03:06:04.337Z,94277.09
2023-04-12T03:08:31.138Z,94750.69
2023-04-12T03:10:57.987Z,94761.97
2023-04-12T03:13:24.975Z,94774.66
2023-04-12T03:16:00.107Z,94774.44
2023-04-12T03:18:27.444Z,94765.59
2023-04-12T03:20:54.014Z,94775.47
2023-04-12T03:23:20.788Z,94774.56
2023-04-12T03:25:47.872Z,94784.28
2023-04-12T03:28:14.430Z,94798.44
2023-04-12T03:30:41.078Z,94805.00
2023-04-12T03:33:08.448Z,94804.19
2023-04-12T03:35:34.978Z,94805.13
2023-04-12T03:38:01.460Z,94801.19
2023-04-12T03:40:28.298Z,94794.69
2023-04-12T03:42:54.710Z,94800.09
2023-04-12T03:45:21.129Z,94793.16
2023-04-12T03:47:50.261Z,94788.75
2023-04-12T03:50:17.069Z,94782.16
2023-04-12T03:52:43.468Z,94779.19
2023-04-12T03:55:10.348Z,94764.31
2023-04-12T03:57:36.899Z,94757.28
2023-04-12T04:00:04.102Z,94738.41
2023-04-12T04:02:32.243Z,94727.28
2023-04-12T04:04:59.040Z,94719.97
2023-04-12T04:07:25.739Z,94717.25
2023-04-12T04:09:54.721Z,94697.13
2023-04-12T04:12:21.111Z,94689.81
2023-04-12T04:14:47.491Z,94683.50
2023-04-12T04:17:14.335Z,94674.88
2023-04-12T04:19:41.802Z,94675.09
2023-04-12T04:22:09.959Z,94670.47
2023-04-12T04:24:39.269Z,94664.19
2023-04-12T04:27:06.326Z,94660.81
2023-04-12T04:29:33.686Z,94655.84
2023-04-12T04:32:00.919Z,94649.91
2023-04-12T04:34:27.440Z,94640.47
2023-04-12T04:36:53.853Z,94652.28
2023-04-12T04:39:21.136Z,94639.22
2023-04-12T04:41:54.427Z,94637.97
2023-04-12T04:44:22.320Z,94629.88
2023-04-12T04:46:49.101Z,94629.63
2023-04-12T04:49:15.744Z,94620.97
2023-04-12T04:51:43.306Z,94609.50
2023-04-12T04:54:09.804Z,94596.00
2023-04-12T04:56:36.278Z,94598.28
2023-04-12T04:59:03.386Z,94577.91
2023-04-12T05:01:29.872Z,94586.19
2023-04-12T05:03:56.438Z,94579.06
2023-04-12T05:06:24.039Z,94560.38
2023-04-12T05:08:52.258Z,94554.31
2023-04-12T05:11:19.412Z,94545.25
2023-04-12T05:13:46.119Z,94546.16
2023-04-12T05:16:12.583Z,94535.03
2023-04-12T05:18:39.003Z,94532.50
2023-04-12T05:21:06.577Z,94536.28
2023-04-12T05:23:37.889Z,94531.22
2023-04-12T05:26:04.734Z,94530.66
2023-04-12T05:28:31.767Z,94528.00
2023-04-12T05:30:58.580Z,94531.56
2023-04-12T05:33:25.367Z,94529.50
2023-04-12T05:35:52.234Z,94527.78
2023-04-12T05:38:18.856Z,94531.56
2023-04-12T05:40:45.502Z,94527.31
2023-04-12T05:43:14.831Z,94531.13
2023-04-12T05:45:41.917Z,94508.66
2023-04-12T05:48:08.872Z,94488.75
2023-04-12T05:50:36.260Z,94480.63
2023-04-12T05:53:03.242Z,94468.00
2023-04-12T05:55:30.163Z,94465.16
2023-04-12T05:57:58.999Z,94446.47
2023-04-12T06:00:26.243Z,94447.72
2023-04-12T06:02:52.907Z,94440.25
2023-04-12T06:05:20.068Z,94439.00
2023-04-12T06:07:49.594Z,94258.94
2023-04-12T06:10:18.058Z,94186.06
2023-04-12T06:12:45.488Z,94116.75
2023-04-12T06:15:12.054Z,94055.53
2023-04-12T06:17:38.566Z,93978.75
2023-04-12T06:20:08.990Z,93866.91
2023-04-12T06:22:36.351Z,93729.84
2023-04-12T06:25:03.817Z,89966.59
2023-04-12T06:27:30.674Z,90148.19
2023-04-12T06:29:57.913Z,90185.06
2023-04-12T06:32:24.559Z,90223.72
2023-04-12T06:34:51.560Z,90272.94
2023-04-12T06:37:18.001Z,90262.75
2023-04-12T06:39:44.416Z,90275.28
2023-04-12T06:42:14.004Z,90306.09
2023-04-12T06:44:41.456Z,90324.13
2023-04-12T06:47:08.061Z,89449.38
2023-04-12T06:49:36.200Z,89539.53
2023-04-12T06:52:02.625Z,89603.69
2023-04-12T06:54:29.035Z,89609.59
2023-04-12T06:56:57.383Z,89647.00
2023-04-12T06:59:23.917Z,89659.28
2023-04-12T07:01:50.363Z,89644.13
2023-04-12T07:04:17.370Z,89618.88
2023-04-12T07:06:43.996Z,89613.00
2023-04-12T07:09:10.654Z,89619.41
2023-04-12T07:11:38.408Z,89622.88
2023-04-12T07:14:04.830Z,89594.94
2023-04-12T07:16:34.263Z,89603.53
2023-04-12T07:19:02.140Z,89610.63
2023-04-12T07:21:28.557Z,89613.00
2023-04-12T07:23:56.109Z,89618.53
2023-04-12T07:26:24.099Z,89592.56
2023-04-12T07:28:50.702Z,89628.81
2023-04-12T07:31:17.328Z,89626.94
2023-04-12T07:33:44.949Z,89618.50
2023-04-12T07:36:12.059Z,89646.63
2023-04-12T07:38:38.559Z,89662.09
2023-04-12T07:41:05.703Z,89691.88
2023-04-12T07:43:32.147Z,89700.97
2023-04-12T07:45:59.616Z,89673.59
2023-04-12T07:48:26.236Z,89663.56
2023-04-12T07:50:52.676Z,89654.69
2023-04-12T07:53:20.887Z,89688.66
2023-04-12T07:55:51.303Z,89690.72
2023-04-12T07:58:18.690Z,89694.88
2023-04-12T08:00:47.111Z,89714.69
2023-04-12T08:03:16.016Z,89710.09
2023-04-12T08:05:42.906Z,89707.94
2023-04-12T08:08:10.820Z,89739.25
2023-04-12T08:10:40.760Z,89724.63
2023-04-12T08:13:07.487Z,89711.50
2023-04-12T08:15:34.703Z,89698.13
2023-04-12T08:18:02.133Z,89697.66
2023-04-12T08:20:29.039Z,89704.13
2023-04-12T08:22:56.078Z,89631.41
2023-04-12T08:25:22.702Z,89647.91
2023-04-12T08:27:51.008Z,89594.66
2023-04-12T08:30:19.873Z,89600.22
2023-04-12T08:32:46.409Z,89599.78
2023-04-12T08:35:14.628Z,89554.84
2023-04-12T08:37:41.497Z,89606.97
2023-04-12T08:40:09.068Z,89644.34
2023-04-12T08:42:37.218Z,89661.66
2023-04-12T08:45:08.930Z,89626.13
2023-04-12T08:47:41.090Z,89700.94
2023-04-12T08:50:10.223Z,89684.22
2023-04-12T08:52:38.037Z,89728.16
2023-04-12T08:55:08.671Z,89737.19
2023-04-12T08:57:36.827Z,89749.00
2023-04-12T09:00:04.727Z,89728.63
2023-04-12T09:02:31.798Z,89693.50
2023-04-12T09:04:59.399Z,89680.84
2023-04-12T09:07:30.559Z,89633.63
2023-04-12T09:09:58.738Z,89691.91
2023-04-12T09:12:26.369Z,89680.84
2023-04-12T09:15:13.892Z,89672.53
2023-04-12T09:17:42.368Z,89669.59
2023-04-12T09:20:29.405Z,89641.09
2023-04-12T09:22:56.354Z,89569.91
2023-04-12T09:25:37.505Z,89528.09
2023-04-12T09:28:05.488Z,89535.66
2023-04-12T09:30:42.015Z,89531.56
2023-04-12T09:33:12.953Z,89557.56
2023-04-12T09:35:39.558Z,89578.34
2023-04-12T09:38:10.342Z,89618.56
2023-04-12T09:40:38.027Z,89634.03
2023-04-12T09:43:04.665Z,89620.25
2023-04-12T09:45:35.681Z,89669.03
2023-04-12T09:48:02.461Z,89671.00
2023-04-12T09:50:30.704Z,89697.03
2023-04-12T09:52:58.599Z,89675.72
2023-04-12T09:55:27.184Z,89694.97
2023-04-12T09:57:55.180Z,89681.75
2023-04-12T10:00:26.819Z,89638.28
2023-04-12T10:02:56.525Z,89699.88
2023-04-12T10:05:28.344Z,89639.06
2023-04-12T10:07:57.227Z,89631.25
2023-04-12T10:10:24.134Z,89648.56
2023-04-12T10:12:50.870Z,89680.19
2023-04-12T10:15:18.562Z,89676.00
2023-04-12T10:17:48.371Z,89653.44
2023-04-12T10:20:16.935Z,89646.69
2023-04-12T10:22:46.098Z,89643.72
2023-04-12T10:25:15.584Z,89672.38
2023-04-12T10:27:43.792Z,89667.88
2023-04-12T10:30:31.467Z,89650.56
2023-04-12T10:33:08.336Z,89646.81
2023-04-12T10:36:07.147Z,89652.81
2023-04-12T10:38:46.113Z,89688.19
2023-04-12T10:41:20.633Z,89684.16
2023-04-12T10:43:51.314Z,89691.38
2023-04-12T10:46:40.056Z,89718.19
2023-04-12T10:49:14.367Z,89717.00
2023-04-12T10:52:01.553Z,89711.75
2023-04-12T10:54:31.190Z,89700.88
2023-04-12T10:56:57.766Z,89697.53
2023-04-12T10:59:34.390Z,89713.28
2023-04-12T11:02:09.007Z,89692.28
2023-04-12T11:04:37.583Z,89708.13
2023-04-12T11:07:11.528Z,89709.56
2023-04-12T11:09:42.025Z,89694.59
2023-04-12T11:12:10.993Z,89678.78
2023-04-12T11:14:43.840Z,89647.50
2023-04-12T11:17:13.413Z,89614.72
2023-04-12T11:19:45.884Z,89590.56
2023-04-12T11:22:14.212Z,89565.59
2023-04-12T11:24:43.780Z,89639.31
2023-04-12T11:27:12.294Z,89652.53
2023-04-12T11:29:38.856Z,89661.25
2023-04-12T11:32:14.655Z,89639.81
2023-04-12T11:34:43.202Z,89631.50
2023-04-12T11:37:10.377Z,89638.00
2023-04-12T11:39:40.524Z,89633.06
2023-04-12T11:42:12.202Z,89622.13
2023-04-12T11:44:55.174Z,89615.72
2023-04-12T11:47:25.184Z,89637.28
2023-04-12T11:49:54.000Z,89633.88
2023-04-12T11:52:21.775Z,89616.50
2023-04-12T11:54:51.254Z,89641.47
2023-04-12T11:57:19.004Z,89671.75
2023-04-12T11:59:46.925Z,89663.44
2023-04-12T12:02:22.915Z,89675.19
2023-04-12T12:04:51.127Z,89658.13
2023-04-12T12:07:19.351Z,89643.03
2023-04-12T12:09:46.757Z,89656.69
2023-04-12T12:12:14.016Z,89624.91
2023-04-12T12:14:43.580Z,89612.41
2023-04-12T12:17:17.445Z,89606.72
2023-04-12T12:19:46.023Z,89503.03
2023-04-12T12:22:14.031Z,89524.16
2023-04-12T12:24:50.901Z,89622.03
2023-04-12T12:27:37.828Z,89755.25
2023-04-12T12:30:07.842Z,89802.78
2023-04-12T12:32:37.508Z,89933.25
2023-04-12T12:35:09.269Z,89911.38
2023-04-12T12:37:36.301Z,89955.38
2023-04-12T12:40:16.748Z,89990.13
2023-04-12T12:42:54.880Z,89984.03
2023-04-12T12:45:23.610Z,90009.78
2023-04-12T12:48:02.391Z,90056.75
2023-04-12T12:50:32.812Z,90060.59
2023-04-12T12:53:02.673Z,90043.22
2023-04-12T12:55:30.634Z,90034.59
2023-04-12T13:00:29.241Z,90080.81
2023-04-12T13:02:56.478Z,90093.44
2023-04-12T13:05:23.684Z,90076.19
2023-04-12T13:07:50.286Z,90064.63
2023-04-12T13:10:16.696Z,90066.66
2023-04-12T13:12:43.569Z,90131.63
2023-04-12T13:15:21.047Z,90161.72
2023-04-12T13:17:49.240Z,90096.50
2023-04-12T13:20:16.736Z,90165.84
2023-04-12T13:22:43.219Z,90255.16
2023-04-12T13:25:10.280Z,90927.47
2023-04-12T13:27:37.967Z,93573.78
2023-04-12T13:30:05.455Z,93578.91
2023-04-12T13:32:32.491Z,93608.78
2023-04-12T13:34:58.889Z,93624.91
2023-04-12T13:37:25.409Z,93620.94
2023-04-12T13:39:52.985Z,93626.63
2023-04-12T13:42:19.575Z,93642.31
2023-04-12T13:44:46.218Z,93646.09
2023-04-12T13:47:13.078Z,93620.69
2023-04-12T13:49:39.491Z,93619.56
2023-04-12T13:52:05.984Z,93618.97
2023-04-12T13:54:33.357Z,93648.38
2023-04-12T13:56:59.999Z,93648.88
2023-04-12T13:59:26.739Z,93645.78
2023-04-12T14:01:54.705Z,93656.66
2023-04-12T14:04:21.588Z,93664.63
2023-04-12T14:06:49.262Z,93676.56
2023-04-12T14:09:26.871Z,93686.38
2023-04-12T14:11:57.763Z,93684.16
2023-04-12T14:14:25.401Z,93689.22
2023-04-12T14:16:53.974Z,93682.34
2023-04-12T14:19:21.266Z,93670.53
2023-04-12T14:21:48.447Z,93684.78
2023-04-12T14:24:18.875Z,93698.03
2023-04-12T14:26:45.383Z,93935.91
2023-04-12T14:29:12.540Z,93991.13
2023-04-12T14:31:40.286Z,93987.16
2023-04-12T14:34:08.712Z,94038.81
2023-04-12T14:36:35.272Z,94048.38
2023-04-12T14:39:04.207Z,94084.84
2023-04-12T14:41:32.395Z,94091.81
2023-04-12T14:44:00.876Z,94104.28
2023-04-12T14:46:28.364Z,94093.94
2023-04-12T14:48:55.830Z,94089.88
2023-04-12T14:51:22.824Z,94106.50
2023-04-12T14:53:49.967Z,94099.25
2023-04-12T14:56:24.198Z,94101.63
2023-04-12T14:58:55.873Z,94095.13
2023-04-12T15:01:23.691Z,94116.06
2023-04-12T15:03:53.583Z,94111.31
2023-04-12T15:06:23.559Z,94107.69
2023-04-12T15:08:57.103Z,94117.06
2023-04-12T15:11:27.622Z,94125.13
2023-04-12T15:13:54.880Z,94124.03
2023-04-12T15:16:22.220Z,94125.69
2023-04-12T15:18:50.252Z,94125.16
2023-04-12T15:21:16.684Z,94135.59
2023-04-12T15:23:43.854Z,94122.47
2023-04-12T15:26:11.471Z,94116.88
2023-04-12T15:28:38.206Z,94122.88
2023-04-12T15:31:05.465Z,94127.97
2023-04-12T15:33:34.471Z,94130.97
2023-04-12T15:36:02.041Z,94121.84
2023-04-12T15:38:30.120Z,94113.28
2023-04-12T15:40:59.627Z,94117.31
2023-04-12T15:43:26.953Z,94124.19
2023-04-12T15:45:55.072Z,94116.53
2023-04-12T15:48:23.015Z,94123.47
2023-04-12T15:50:50.771Z,94137.03
2023-04-12T15:53:20.566Z,94134.69
2023-04-12T15:55:47.484Z,94118.28
2023-04-12T15:58:14.951Z,94121.44
2023-04-12T16:00:42.654Z,94125.19
2023-04-12T16:03:09.779Z,94110.28
2023-04-12T16:05:36.613Z,94114.59
2023-04-12T16:08:03.929Z,94095.97
2023-04-12T16:10:30.567Z,94104.19
2023-04-12T16:12:57.467Z,94100.22
2023-04-12T16:15:25.015Z,94100.78
2023-04-12T16:17:55.682Z,94089.91
2023-04-12T16:20:23.529Z,94099.56
2023-04-12T16:22:54.666Z,94107.81
2023-04-12T16:25:22.773Z,94113.13
2023-04-12T16:27:49.234Z,94111.06
2023-04-12T16:30:16.299Z,94118.59
2023-04-12T16:32:47.618Z,94114.63
2023-04-12T16:35:14.965Z,94090.44
2023-04-12T16:37:45.377Z,94096.88
2023-04-12T16:40:14.837Z,94094.50
2023-04-12T16:42:42.618Z,94083.03
2023-04-12T16:45:10.997Z,94104.56
2023-04-12T16:47:40.569Z,94109.31
2023-04-12T16:50:09.055Z,94128.72
2023-04-12T16:52:37.063Z,94158.78
2023-04-12T16:55:04.062Z,94180.59
2023-04-12T16:57:30.581Z,94182.72
2023-04-12T16:59:57.656Z,94179.28
2023-04-12T17:02:25.044Z,94193.09
2023-04-12T17:04:52.085Z,94195.22
2023-04-12T17:07:18.995Z,94187.19
2023-04-12T17:09:45.870Z,94188.50
2023-04-12T17:12:12.846Z,94196.69
2023-04-12T17:14:39.278Z,94183.06
2023-04-12T17:17:06.789Z,94196.28
2023-04-12T17:19:34.082Z,94186.44
2023-04-12T17:22:00.782Z,94202.91
2023-04-12T17:24:28.610Z,94200.78
2023-04-12T17:26:56.085Z,94214.06
2023-04-12T17:29:22.658Z,94216.38
2023-04-12T17:31:50.751Z,94216.03
2023-04-12T17:34:20.093Z,94216.03
2023-04-12T17:36:46.761Z,94229.25
2023-04-12T17:39:13.269Z,94237.63
2023-04-12T17:41:40.353Z,94239.63
2023-04-12T17:44:07.705Z,94251.84
2023-04-12T17:46:35.199Z,94257.59
2023-04-12T17:49:04.332Z,94265.50
2023-04-12T17:51:32.154Z,94261.78
2023-04-12T17:54:00.236Z,94257.53
2023-04-12T17:56:26.993Z,94255.06
2023-04-12T17:58:53.404Z,94259.06
2023-04-12T18:01:19.859Z,94257.66
2023-04-12T18:03:47.817Z,94256.72
2023-04-12T18:06:14.933Z,94259.31
2023-04-12T18:08:41.845Z,94257.66
2023-04-12T18:11:08.309Z,94257.59
2023-04-12T18:13:34.756Z,94258.56
2023-04-12T18:16:01.810Z,94250.00
2023-04-12T18:18:28.385Z,94245.19
2023-04-12T18:20:55.144Z,94247.28
2023-04-12T18:23:21.608Z,94248.19
2023-04-12T18:25:48.276Z,94243.47
2023-04-12T18:28:15.052Z,94242.66
2023-04-12T18:30:41.533Z,94230.22
2023-04-12T18:33:08.509Z,94245.56
2023-04-12T18:35:35.049Z,94244.94
2023-04-12T18:38:01.744Z,94247.59
2023-04-12T18:40:28.883Z,94243.13
2023-04-12T18:42:55.352Z,94249.91
2023-04-12T18:45:22.756Z,94243.72
2023-04-12T18:47:51.532Z,94242.59
2023-04-12T18:50:19.498Z,94247.75
2023-04-12T18:52:46.064Z,94245.66
2023-04-12T18:55:12.860Z,94247.28
2023-04-12T18:57:39.259Z,94245.63
2023-04-12T19:00:13.842Z,94243.47
2023-04-12T19:02:41.194Z,94243.47
2023-04-12T19:05:10.558Z,94237.69
2023-04-12T19:07:37.229Z,94243.28
2023-04-12T19:10:04.198Z,94234.88
2023-04-12T19:12:31.390Z,94236.69
2023-04-12T19:14:57.789Z,94238.88
2023-04-12T19:17:27.546Z,94243.03
2023-04-12T19:19:55.252Z,94243.09
2023-04-12T19:22:22.445Z,94246.47
2023-04-12T19:24:52.406Z,94248.13
2023-04-12T19:27:19.212Z,94238.38
2023-04-12T19:29:45.659Z,94239.56
2023-04-12T19:32:12.455Z,94245.06
2023-04-12T19:34:39.715Z,94238.28
2023-04-12T19:37:07.109Z,94243.41
2023-04-12T19:39:34.103Z,94246.22
2023-04-12T19:42:02.818Z,94252.13
2023-04-12T19:44:29.333Z,94251.56
2023-04-12T19:46:56.026Z,94250.78
2023-04-12T19:49:24.564Z,94233.91
2023-04-12T19:51:51.560Z,94231.91
2023-04-12T19:54:18.885Z,94218.69
2023-04-12T19:56:46.894Z,94214.44
2023-04-12T19:59:13.303Z,94217.25
2023-04-12T20:01:49.516Z,94229.00
2023-04-12T20:04:18.282Z,94218.94
2023-04-12T20:06:44.890Z,94221.03
2023-04-12T20:09:13.937Z,94224.13
2023-04-12T20:11:41.147Z,94234.28
2023-04-12T20:14:10.488Z,94233.78
2023-04-12T20:16:38.474Z,94234.59
2023-04-12T20:19:05.033Z,94236.22
2023-04-12T20:21:34.023Z,94236.59
2023-04-12T20:24:02.355Z,94233.06
2023-04-12T20:26:31.618Z,94228.22
2023-04-12T20:28:59.829Z,94194.59
2023-04-12T20:31:27.448Z,94176.69
2023-04-12T20:33:55.025Z,94157.47
2023-04-12T20:36:22.419Z,94142.44
2023-04-12T20:38:53.262Z,94125.41
2023-04-12T20:41:20.306Z,94111.09
2023-04-12T20:43:48.025Z,94114.22
2023-04-12T20:46:17.667Z,94109.34
2023-04-12T20:48:46.317Z,94099.09
2023-04-12T20:51:14.518Z,94105.88
2023-04-12T20:53:44.109Z,94107.66
2023-04-12T20:56:10.630Z,94125.81
2023-04-12T20:58:37.901Z,94129.09
2023-04-12T21:01:06.377Z,94145.56
2023-04-12T21:03:33.877Z,94154.75
2023-04-12T21:06:02.062Z,94149.31
2023-04-12T21:08:31.414Z,94156.56
2023-04-12T21:10:58.765Z,94152.66
2023-04-12T21:13:26.506Z,94170.88
2023-04-12T21:15:54.374Z,94169.28
2023-04-12T21:18:21.601Z,94180.66
2023-04-12T21:20:48.511Z,94184.56
2023-04-12T21:23:18.588Z,94178.31
2023-04-12T21:25:50.911Z,94187.84
2023-04-12T21:28:18.119Z,94184.41
2023-04-12T21:30:46.398Z,94192.31
2023-04-12T21:33:12.810Z,94197.91
2023-04-12T21:35:40.158Z,94205.47
2023-04-12T21:38:07.301Z,94205.22
2023-04-12T21:40:33.701Z,94212.31
2023-04-12T21:43:01.434Z,94229.44
2023-04-12T21:45:28.191Z,94227.38
2023-04-12T21:47:54.666Z,94220.22
2023-04-12T21:50:21.578Z,94218.66
2023-04-12T21:52:48.525Z,94206.25
2023-04-12T21:55:14.925Z,94192.25
2023-04-12T21:57:41.413Z,94180.44
2023-04-12T22:00:10.255Z,94165.97
2023-04-12T22:02:36.991Z,94155.97
2023-04-12T22:05:03.712Z,94134.84
2023-04-12T22:07:30.819Z,94118.47
2023-04-12T22:09:58.567Z,94102.63
2023-04-12T22:12:25.618Z,94086.25
2023-04-12T22:14:52.623Z,94040.59
2023-04-12T22:17:21.262Z,93872.69
2023-04-12T22:19:47.748Z,90956.75
2023-04-12T22:22:17.479Z,91088.88
2023-04-12T22:24:44.168Z,91141.94
2023-04-12T22:27:11.291Z,91154.00
2023-04-12T22:29:38.062Z,91165.47
2023-04-12T22:32:04.752Z,91169.34
2023-04-12T22:34:32.790Z,91178.66
2023-04-12T22:36:59.203Z,91162.69
2023-04-12T22:39:26.537Z,91151.31
2023-04-12T22:41:54.032Z,91162.97
2023-04-12T22:44:23.391Z,91191.22
2023-04-12T22:46:51.552Z,91236.66
2023-04-12T22:49:20.242Z,91262.22
2023-04-12T22:51:46.807Z,91284.47
2023-04-12T22:54:13.198Z,91283.00
2023-04-12T22:56:45.760Z,91272.47
2023-04-12T22:59:16.737Z,91259.94
2023-04-12T23:01:47.698Z,91256.97
2023-04-12T23:04:14.757Z,91257.75
2023-04-12T23:06:42.659Z,91249.97
2023-04-12T23:09:11.365Z,91267.59
2023-04-12T23:11:40.055Z,91277.66
2023-04-12T23:14:08.242Z,91284.47
2023-04-12T23:19:20.766Z,91299.94
2023-04-12T23:21:47.202Z,91300.00
2023-04-12T23:24:16.178Z,91296.75
2023-04-12T23:26:45.584Z,91313.94
2023-04-12T23:29:12.648Z,91350.81
2023-04-12T23:31:40.627Z,91379.84
2023-04-12T23:34:11.927Z,91404.75
2023-04-12T23:36:38.370Z,91391.31
2023-04-12T23:39:08.580Z,91396.25
2023-04-12T23:41:35.431Z,91385.94
2023-04-12T23:44:02.076Z,91393.00
2023-04-12T23:46:28.603Z,91387.03
2023-04-12T23:48:55.513Z,91404.84
2023-04-12T23:51:22.532Z,91417.59
2023-04-12T23:53:48.971Z,91435.69
2023-04-12T23:56:16.320Z,91459.81
2023-04-12T23:58:42.788Z,91503.69
